createdAt,value
2022-08-22T00:02:34.084Z,17.62
2022-08-22T00:03:00.571Z,18.03
2022-08-22T00:03:15.416Z,17.65
2022-08-22T00:05:51.752Z,17.65
2022-08-22T00:08:57.321Z,17.64
2022-08-22T00:12:07.904Z,17.62
2022-08-22T00:15:42.005Z,17.71
2022-08-22T00:18:47.588Z,17.76
2022-08-22T00:22:09.806Z,17.71
2022-08-22T00:25:27.418Z,17.68
2022-08-22T00:28:33.959Z,17.70
2022-08-22T00:31:47.645Z,17.78
2022-08-22T00:34:58.404Z,17.81
2022-08-22T00:38:10.631Z,17.78
2022-08-22T00:41:31.677Z,17.78
2022-08-22T00:44:49.647Z,17.77
2022-08-22T00:48:00.172Z,17.77
2022-08-22T00:51:03.487Z,17.71
2022-08-22T00:54:18.358Z,17.68
2022-08-22T00:57:21.012Z,17.62
2022-08-22T01:00:25.302Z,17.63
2022-08-22T01:03:37.699Z,17.67
2022-08-22T01:06:45.534Z,17.61
2022-08-22T01:09:51.134Z,17.57
2022-08-22T01:13:02.819Z,17.56
2022-08-22T01:16:26.260Z,17.56
2022-08-22T01:19:34.743Z,17.57
2022-08-22T01:22:40.229Z,17.60
2022-08-22T01:25:42.538Z,17.59
2022-08-22T01:28:51.009Z,17.56
2022-08-22T01:32:11.700Z,17.62
2022-08-22T01:35:32.926Z,17.60
2022-08-22T01:38:38.312Z,17.52
2022-08-22T01:41:40.886Z,17.50
2022-08-22T01:44:55.674Z,17.46
2022-08-22T01:48:05.259Z,17.51
2022-08-22T01:51:19.444Z,17.48
2022-08-22T01:54:31.470Z,17.45
2022-08-22T01:57:48.253Z,17.45
2022-08-22T02:01:03.333Z,17.48
2022-08-22T02:04:10.931Z,17.45
2022-08-22T02:07:17.762Z,17.44
2022-08-22T02:10:26.424Z,17.44
2022-08-22T02:13:41.076Z,17.43
2022-08-22T02:16:59.443Z,17.49
2022-08-22T02:20:22.992Z,17.50
2022-08-22T02:23:30.370Z,17.53
2022-08-22T02:26:51.687Z,17.50
2022-08-22T02:30:06.572Z,17.43
2022-08-22T02:33:13.086Z,17.42
2022-08-22T02:36:22.119Z,17.46
2022-08-22T02:39:24.428Z,17.41
2022-08-22T02:42:33.839Z,17.40
2022-08-22T02:46:03.962Z,17.40
2022-08-22T02:49:19.327Z,17.35
2022-08-22T02:52:25.211Z,17.31
2022-08-22T02:55:34.703Z,17.29
2022-08-22T02:58:51.740Z,17.35
2022-08-22T03:01:55.251Z,17.29
2022-08-22T03:04:59.940Z,17.29
2022-08-22T03:08:05.416Z,17.29
2022-08-22T03:11:27.188Z,17.27
2022-08-22T03:14:35.583Z,17.28
2022-08-22T03:17:46.541Z,17.30
2022-08-22T03:21:09.374Z,17.31
2022-08-22T03:24:22.855Z,17.32
2022-08-22T03:27:32.567Z,17.44
2022-08-22T03:31:05.132Z,17.46
2022-08-22T03:34:21.326Z,17.46
2022-08-22T03:37:35.963Z,17.50
2022-08-22T03:40:50.180Z,17.58
2022-08-22T03:43:52.382Z,17.68
2022-08-22T03:47:17.023Z,17.65
2022-08-22T03:50:22.110Z,17.68
2022-08-22T03:53:43.325Z,17.59
2022-08-22T03:57:12.156Z,17.59
2022-08-22T04:00:29.932Z,17.62
2022-08-22T04:03:46.488Z,17.65
2022-08-22T04:06:59.174Z,17.71
2022-08-22T04:10:17.456Z,17.71
2022-08-22T04:13:41.202Z,17.83
2022-08-22T04:16:58.087Z,17.85
2022-08-22T04:20:09.884Z,17.90
2022-08-22T04:23:21.279Z,17.96
2022-08-22T04:26:42.191Z,18.06
2022-08-22T04:30:03.254Z,18.15
2022-08-22T04:33:22.246Z,18.27
2022-08-22T04:36:28.072Z,18.41
2022-08-22T04:39:34.746Z,18.55
2022-08-22T04:42:40.470Z,18.65
2022-08-22T04:45:52.491Z,18.74
2022-08-22T04:48:57.824Z,18.72
2022-08-22T04:52:09.316Z,18.75
2022-08-22T04:55:24.389Z,18.82
2022-08-22T04:58:44.817Z,18.82
2022-08-22T05:01:53.516Z,18.99
2022-08-22T05:05:04.040Z,19.11
2022-08-22T05:08:10.031Z,19.24
2022-08-22T05:11:15.256Z,19.37
2022-08-22T05:14:22.836Z,19.40
2022-08-22T05:17:27.127Z,19.35
2022-08-22T05:20:30.577Z,19.42
2022-08-22T05:23:44.250Z,19.53
2022-08-22T05:26:49.188Z,19.61
2022-08-22T05:29:53.842Z,19.51
2022-08-22T05:32:59.307Z,19.67
2022-08-22T05:36:08.158Z,19.69
2022-08-22T05:39:16.327Z,19.63
2022-08-22T05:42:23.208Z,19.68
2022-08-22T05:45:27.191Z,19.82
2022-08-22T05:48:36.481Z,19.87
2022-08-22T05:51:39.056Z,19.91
2022-08-22T05:55:03.637Z,19.99
2022-08-22T05:58:18.332Z,20.07
2022-08-22T06:01:29.901Z,20.14
2022-08-22T06:04:38.707Z,20.30
2022-08-22T06:07:48.399Z,20.39
2022-08-22T06:10:53.795Z,20.48
2022-08-22T06:14:08.311Z,20.32
2022-08-22T06:17:13.694Z,20.59
2022-08-22T06:20:19.776Z,20.76
2022-08-22T06:23:35.231Z,20.98
2022-08-22T06:26:40.234Z,20.76
2022-08-22T06:29:49.170Z,21.11
2022-08-22T06:32:59.166Z,21.23
2022-08-22T06:36:25.802Z,21.61
2022-08-22T06:39:31.120Z,21.74
2022-08-22T06:42:37.572Z,22.33
2022-08-22T06:45:40.847Z,22.83
2022-08-22T06:48:44.048Z,23.03
2022-08-22T06:51:47.378Z,22.86
2022-08-22T06:54:55.406Z,22.82
2022-08-22T06:58:21.206Z,22.52
2022-08-22T07:01:26.389Z,22.76
2022-08-22T07:04:29.109Z,23.37
2022-08-22T07:07:31.816Z,23.48
2022-08-22T07:10:34.548Z,23.96
2022-08-22T07:13:38.894Z,26.17
2022-08-22T07:16:44.299Z,25.08
2022-08-22T07:19:48.722Z,24.16
2022-08-22T07:22:54.183Z,24.63
2022-08-22T07:26:15.795Z,24.30
2022-08-22T07:29:38.687Z,23.83
2022-08-22T07:33:25.172Z,23.25
2022-08-22T07:36:32.227Z,22.92
2022-08-22T07:39:37.673Z,23.98
2022-08-22T07:42:48.365Z,24.97
2022-08-22T07:45:53.812Z,25.77
2022-08-22T07:49:09.086Z,25.44
2022-08-22T07:52:13.703Z,25.15
2022-08-22T07:55:20.659Z,24.56
2022-08-22T07:58:26.780Z,24.80
2022-08-22T08:01:29.741Z,25.21
2022-08-22T08:04:38.076Z,24.94
2022-08-22T08:07:44.087Z,24.51
2022-08-22T08:10:48.656Z,24.24
2022-08-22T08:13:53.276Z,24.21
2022-08-22T08:17:05.914Z,24.45
2022-08-22T08:20:11.111Z,24.92
2022-08-22T08:23:23.406Z,24.82
2022-08-22T08:26:34.278Z,24.53
2022-08-22T08:29:37.377Z,24.73
2022-08-22T08:32:40.138Z,24.97
2022-08-22T08:36:03.490Z,25.04
2022-08-22T08:39:14.781Z,24.71
2022-08-22T08:42:17.475Z,24.15
2022-08-22T08:45:25.204Z,24.63
2022-08-22T08:48:34.871Z,24.29
2022-08-22T08:51:52.284Z,24.06
2022-08-22T08:55:21.788Z,23.73
2022-08-22T08:58:33.915Z,23.56
2022-08-22T09:01:36.471Z,24.20
2022-08-22T09:05:03.581Z,24.61
2022-08-22T09:08:11.744Z,24.99
2022-08-22T09:11:33.872Z,25.10
2022-08-22T09:14:47.418Z,24.79
2022-08-22T09:18:00.304Z,24.02
2022-08-22T09:21:15.202Z,24.46
2022-08-22T09:24:52.363Z,25.68
2022-08-22T09:28:01.423Z,26.64
2022-08-22T09:31:47.553Z,26.55
2022-08-22T09:34:51.412Z,26.21
2022-08-22T09:37:53.874Z,26.71
2022-08-22T09:41:13.260Z,26.51
2022-08-22T09:44:15.667Z,26.38
2022-08-22T09:47:31.399Z,26.30
2022-08-22T09:51:04.698Z,25.86
2022-08-22T09:54:23.089Z,26.33
2022-08-22T09:57:33.023Z,25.84
2022-08-22T10:00:47.140Z,25.63
2022-08-22T10:04:19.514Z,26.03
2022-08-22T10:07:31.446Z,26.07
2022-08-22T10:10:40.166Z,25.70
2022-08-22T10:14:03.434Z,25.55
2022-08-22T10:17:21.716Z,25.01
2022-08-22T10:20:34.066Z,25.35
2022-08-22T10:23:45.901Z,25.39
2022-08-22T10:26:54.446Z,26.09
2022-08-22T10:30:17.460Z,25.76
2022-08-22T10:33:29.389Z,25.54
2022-08-22T10:36:31.953Z,26.06
2022-08-22T10:39:48.549Z,25.97
2022-08-22T10:43:05.584Z,26.00
2022-08-22T10:46:16.232Z,25.88
2022-08-22T10:49:32.553Z,26.33
2022-08-22T10:52:40.120Z,26.71
2022-08-22T10:55:44.468Z,26.95
2022-08-22T10:59:08.514Z,27.02
2022-08-22T11:02:17.883Z,27.13
2022-08-22T11:05:29.614Z,27.44
2022-08-22T11:08:35.097Z,27.52
2022-08-22T11:11:58.756Z,27.39
2022-08-22T11:15:34.432Z,27.23
2022-08-22T11:19:02.695Z,27.93
2022-08-22T11:22:29.333Z,27.11
2022-08-22T11:25:43.648Z,26.98
2022-08-22T11:28:51.559Z,27.35
2022-08-22T11:32:05.846Z,27.32
2022-08-22T11:35:31.903Z,27.77
2022-08-22T11:38:36.161Z,27.82
2022-08-22T11:41:42.542Z,27.86
2022-08-22T11:44:55.648Z,27.54
2022-08-22T11:48:04.940Z,26.96
2022-08-22T11:51:26.065Z,26.00
2022-08-22T11:54:35.640Z,25.73
2022-08-22T11:57:44.254Z,25.58
2022-08-22T12:00:56.994Z,25.32
2022-08-22T12:04:12.736Z,25.28
2022-08-22T12:07:15.297Z,25.42
2022-08-22T12:10:21.313Z,25.38
2022-08-22T12:13:40.232Z,25.64
2022-08-22T12:16:45.921Z,25.92
2022-08-22T12:20:17.529Z,26.16
2022-08-22T12:23:43.231Z,26.26
2022-08-22T12:27:07.935Z,26.58
2022-08-22T12:30:15.064Z,26.63
2022-08-22T12:33:26.291Z,27.19
2022-08-22T12:36:41.000Z,27.78
2022-08-22T12:39:55.164Z,27.95
2022-08-22T12:42:57.894Z,27.87
2022-08-22T12:46:00.223Z,27.40
2022-08-22T12:49:09.175Z,27.61
2022-08-22T12:52:11.562Z,27.56
2022-08-22T12:55:17.296Z,27.56
2022-08-22T12:58:51.210Z,27.18
2022-08-22T13:01:57.038Z,27.22
2022-08-22T13:05:02.043Z,26.77
2022-08-22T13:08:08.059Z,26.97
2022-08-22T13:11:23.194Z,27.53
2022-08-22T13:14:28.160Z,27.79
2022-08-22T13:17:30.748Z,27.85
2022-08-22T13:20:38.990Z,27.56
2022-08-22T13:23:50.811Z,27.70
2022-08-22T13:26:58.246Z,27.61
2022-08-22T13:30:03.608Z,26.82
2022-08-22T13:33:22.529Z,26.55
2022-08-22T13:36:26.805Z,26.17
2022-08-22T13:39:34.384Z,25.67
2022-08-22T13:42:43.832Z,25.56
2022-08-22T13:45:53.949Z,25.20
2022-08-22T13:49:00.988Z,24.46
2022-08-22T13:52:29.695Z,23.79
2022-08-22T13:55:45.059Z,22.99
2022-08-22T13:58:56.213Z,22.60
2022-08-22T14:02:18.163Z,22.54
2022-08-22T14:05:41.259Z,22.53
2022-08-22T14:08:45.251Z,22.60
2022-08-22T14:11:51.215Z,22.58
2022-08-22T14:15:01.286Z,22.67
2022-08-22T14:18:10.868Z,22.74
2022-08-22T14:21:16.391Z,22.96
2022-08-22T14:24:25.786Z,23.20
2022-08-22T14:27:49.712Z,23.30
2022-08-22T14:31:01.039Z,23.47
2022-08-22T14:34:10.343Z,23.58
2022-08-22T14:37:21.026Z,23.09
2022-08-22T14:40:33.747Z,22.68
2022-08-22T14:43:47.452Z,22.27
2022-08-22T14:46:52.966Z,22.14
2022-08-22T14:49:57.715Z,22.21
2022-08-22T14:53:06.047Z,22.03
2022-08-22T14:56:18.253Z,22.09
2022-08-22T14:59:31.422Z,22.11
2022-08-22T15:02:34.467Z,22.27
2022-08-22T15:05:45.168Z,22.44
2022-08-22T15:08:50.471Z,22.60
2022-08-22T15:11:53.118Z,22.70
2022-08-22T15:14:58.309Z,22.86
2022-08-22T15:18:01.224Z,22.84
2022-08-22T15:21:10.102Z,22.70
2022-08-22T15:24:13.780Z,22.77
2022-08-22T15:27:20.342Z,22.78
2022-08-22T15:30:54.049Z,22.85
2022-08-22T15:34:08.562Z,22.78
2022-08-22T15:37:17.497Z,22.93
2022-08-22T15:40:30.005Z,22.81
2022-08-22T15:43:35.091Z,22.83
2022-08-22T15:47:01.129Z,22.59
2022-08-22T15:50:14.798Z,22.51
2022-08-22T15:53:38.625Z,22.45
2022-08-22T15:57:03.617Z,22.38
2022-08-22T16:00:28.208Z,22.36
2022-08-22T16:03:33.475Z,22.35
2022-08-22T16:06:47.999Z,22.35
2022-08-22T16:09:53.084Z,22.31
2022-08-22T16:13:13.690Z,22.22
2022-08-22T16:16:25.381Z,22.21
2022-08-22T16:19:29.623Z,22.37
2022-08-22T16:22:51.176Z,22.36
2022-08-22T16:25:53.543Z,22.29
2022-08-22T16:28:59.361Z,22.18
2022-08-22T16:32:05.980Z,22.10
2022-08-22T16:35:08.960Z,21.90
2022-08-22T16:38:21.847Z,21.76
2022-08-22T16:41:32.530Z,21.71
2022-08-22T16:44:38.696Z,21.51
2022-08-22T16:47:56.008Z,21.37
2022-08-22T16:51:05.589Z,21.23
2022-08-22T16:54:11.587Z,21.16
2022-08-22T16:57:32.969Z,21.08
2022-08-22T17:01:08.145Z,21.03
2022-08-22T17:04:10.505Z,20.97
2022-08-22T17:07:32.107Z,20.94
2022-08-22T17:10:34.913Z,20.88
2022-08-22T17:13:43.931Z,20.81
2022-08-22T17:16:59.445Z,20.75
2022-08-22T17:20:04.923Z,20.83
2022-08-22T17:23:13.390Z,20.88
2022-08-22T17:26:26.245Z,20.81
2022-08-22T17:29:42.896Z,20.70
2022-08-22T17:32:45.653Z,20.59
2022-08-22T17:36:00.358Z,20.44
2022-08-22T17:39:17.758Z,20.39
2022-08-22T17:42:35.838Z,20.37
2022-08-22T17:46:12.881Z,20.37
2022-08-22T17:49:31.304Z,20.29
2022-08-22T17:52:36.459Z,20.20
2022-08-22T17:55:57.335Z,20.12
2022-08-22T17:59:06.712Z,20.04
2022-08-22T18:02:26.490Z,20.00
2022-08-22T18:05:35.386Z,20.01
2022-08-22T18:12:15.667Z,20.03
2022-08-22T18:15:21.157Z,19.97
2022-08-22T18:18:36.567Z,19.93
2022-08-22T18:21:47.132Z,19.74
2022-08-22T18:24:50.249Z,19.54
2022-08-22T18:27:58.096Z,19.41
2022-08-22T18:31:07.399Z,19.31
2022-08-22T18:34:18.914Z,19.11
2022-08-22T18:37:31.269Z,19.05
2022-08-22T18:40:36.711Z,18.92
2022-08-22T18:43:50.872Z,18.88
2022-08-22T18:46:54.624Z,18.89
2022-08-22T18:49:58.264Z,18.93
2022-08-22T18:53:00.961Z,18.93
2022-08-22T18:56:14.359Z,18.88
2022-08-22T18:59:35.705Z,18.89
2022-08-22T19:02:38.297Z,18.92
2022-08-22T19:05:40.679Z,18.89
2022-08-22T19:08:49.309Z,18.88
2022-08-22T19:12:10.748Z,18.87
2022-08-22T19:15:27.472Z,18.88
2022-08-22T19:18:45.016Z,18.90
2022-08-22T19:22:21.820Z,18.93
2022-08-22T19:25:26.345Z,18.88
2022-08-22T19:28:35.234Z,18.95
2022-08-22T19:31:41.831Z,19.03
2022-08-22T19:34:46.901Z,19.08
2022-08-22T19:37:52.684Z,19.04
2022-08-22T19:40:57.026Z,19.09
2022-08-22T19:44:00.812Z,19.10
2022-08-22T19:47:18.465Z,19.15
2022-08-22T19:50:21.298Z,19.18
2022-08-22T19:53:40.449Z,19.18
2022-08-22T19:56:43.080Z,19.18
2022-08-22T19:59:53.018Z,19.13
2022-08-22T20:02:58.326Z,19.12
2022-08-22T20:06:42.618Z,19.12
2022-08-22T20:09:45.189Z,19.08
2022-08-22T20:13:00.110Z,19.11
2022-08-22T20:16:09.604Z,19.04
2022-08-22T20:19:12.439Z,19.09
2022-08-22T20:22:18.103Z,19.05
2022-08-22T20:25:41.796Z,19.09
2022-08-22T20:28:49.791Z,18.95
2022-08-22T20:31:56.757Z,18.86
2022-08-22T20:35:03.023Z,18.84
2022-08-22T20:38:07.896Z,18.93
2022-08-22T20:41:11.686Z,18.93
2022-08-22T20:44:24.652Z,18.89
2022-08-22T20:47:34.101Z,18.86
2022-08-22T20:50:43.861Z,18.93
2022-08-22T20:53:54.692Z,18.81
2022-08-22T20:57:17.553Z,18.78
2022-08-22T21:00:22.416Z,18.83
2022-08-22T21:03:24.964Z,18.85
2022-08-22T21:06:31.829Z,18.84
2022-08-22T21:09:53.407Z,18.76
2022-08-22T21:13:09.861Z,18.75
2022-08-22T21:16:17.086Z,18.73
2022-08-22T21:19:20.697Z,18.63
2022-08-22T21:22:30.892Z,18.56
2022-08-22T21:25:46.008Z,18.56
2022-08-22T21:28:57.577Z,18.56
2022-08-22T21:32:08.044Z,18.56
2022-08-22T21:35:28.075Z,18.56
2022-08-22T21:38:30.519Z,18.56
2022-08-22T21:41:44.268Z,18.62
2022-08-22T21:44:55.447Z,18.59
2022-08-22T21:47:58.466Z,18.55
2022-08-22T21:51:20.289Z,18.51
2022-08-22T21:54:26.080Z,18.55
2022-08-22T21:57:35.499Z,18.52
2022-08-22T22:00:48.627Z,18.54
2022-08-22T22:03:52.161Z,18.63
2022-08-22T22:06:56.749Z,18.63
2022-08-22T22:10:00.204Z,18.63
2022-08-22T22:13:02.955Z,18.58
2022-08-22T22:16:07.595Z,18.57
2022-08-22T22:19:09.975Z,18.56
2022-08-22T22:22:13.914Z,18.53
2022-08-22T22:25:38.937Z,18.51
2022-08-22T22:28:41.488Z,18.58
2022-08-22T22:31:43.774Z,18.56
2022-08-22T22:34:46.403Z,18.56
2022-08-22T22:37:48.752Z,18.50
2022-08-22T22:40:52.013Z,18.52
2022-08-22T22:43:55.022Z,18.43
2022-08-22T22:46:58.559Z,18.38
2022-08-22T22:50:00.914Z,18.38
2022-08-22T22:53:04.293Z,18.41
2022-08-22T22:56:09.222Z,18.39
2022-08-22T22:59:13.468Z,18.45
2022-08-22T23:02:19.435Z,18.50
2022-08-22T23:05:22.903Z,18.56
2022-08-22T23:08:25.415Z,18.60
2022-08-22T23:11:28.801Z,18.54
2022-08-22T23:14:32.181Z,18.53
2022-08-22T23:17:35.283Z,18.47
2022-08-22T23:20:37.648Z,18.46
2022-08-22T23:23:40.744Z,18.42
2022-08-22T23:26:43.587Z,18.42
2022-08-22T23:29:46.178Z,18.47
2022-08-22T23:32:48.568Z,18.37
2022-08-22T23:35:51.531Z,18.31
2022-08-22T23:38:59.655Z,18.28
2022-08-22T23:42:02.503Z,18.32
2022-08-22T23:45:05.236Z,18.28
2022-08-22T23:48:07.887Z,18.28
2022-08-22T23:51:10.862Z,18.21
2022-08-22T23:54:13.795Z,18.16
2022-08-22T23:57:16.180Z,18.16
